sensor_id;sensor_type;location;lat;lon;timestamp;temperature;humidity
10249;DHT22;5169;50.560;9.714;2023-02-11T00:03:49;2.30;99.90
10249;DHT22;5169;50.560;9.714;2023-02-11T00:06:15;2.30;99.90
10249;DHT22;5169;50.560;9.714;2023-02-11T00:08:46;2.30;99.90
10249;DHT22;5169;50.560;9.714;2023-02-11T00:11:16;2.40;99.90
10249;DHT22;5169;50.560;9.714;2023-02-11T00:13:44;2.30;99.90
10249;DHT22;5169;50.560;9.714;2023-02-11T00:16:12;2.30;99.90
10249;DHT22;5169;50.560;9.714;2023-02-11T00:18:41;2.30;99.90
10249;DHT22;5169;50.560;9.714;2023-02-11T00:21:11;2.20;99.90
10249;DHT22;5169;50.560;9.714;2023-02-11T00:23:38;2.20;99.90
10249;DHT22;5169;50.560;9.714;2023-02-11T00:26:18;2.20;99.90
10249;DHT22;5169;50.560;9.714;2023-02-11T00:28:45;2.20;99.90
10249;DHT22;5169;50.560;9.714;2023-02-11T00:31:12;2.10;99.90
10249;DHT22;5169;50.560;9.714;2023-02-11T00:33:38;2.10;99.90
10249;DHT22;5169;50.560;9.714;2023-02-11T00:36:08;2.10;99.90
10249;DHT22;5169;50.560;9.714;2023-02-11T00:38:34;2.10;99.90
10249;DHT22;5169;50.560;9.714;2023-02-11T00:41:02;2.20;99.90
10249;DHT22;5169;50.560;9.714;2023-02-11T00:43:28;2.10;99.90
10249;DHT22;5169;50.560;9.714;2023-02-11T00:45:56;2.10;99.90
10249;DHT22;5169;50.560;9.714;2023-02-11T00:48:22;2.10;99.90
10249;DHT22;5169;50.560;9.714;2023-02-11T00:50:47;2.10;99.90
10249;DHT22;5169;50.560;9.714;2023-02-11T00:53:13;2.00;99.90
10249;DHT22;5169;50.560;9.714;2023-02-11T00:55:41;2.00;99.90
10249;DHT22;5169;50.560;9.714;2023-02-11T00:58:06;2.00;99.90
10249;DHT22;5169;50.560;9.714;2023-02-11T01:00:32;2.00;99.90
10249;DHT22;5169;50.560;9.714;2023-02-11T01:02:58;2.10;99.90
10249;DHT22;5169;50.560;9.714;2023-02-11T01:05:24;2.00;99.90
10249;DHT22;5169;50.560;9.714;2023-02-11T01:07:49;2.00;99.90
10249;DHT22;5169;50.560;9.714;2023-02-11T01:10:15;1.90;99.90
10249;DHT22;5169;50.560;9.714;2023-02-11T01:12:41;1.90;99.90
10249;DHT22;5169;50.560;9.714;2023-02-11T01:15:10;1.90;99.90
10249;DHT22;5169;50.560;9.714;2023-02-11T01:17:38;2.00;99.90
10249;DHT22;5169;50.560;9.714;2023-02-11T01:20:10;2.10;99.90
10249;DHT22;5169;50.560;9.714;2023-02-11T01:22:38;2.10;99.90
10249;DHT22;5169;50.560;9.714;2023-02-11T01:25:05;2.10;99.90
10249;DHT22;5169;50.560;9.714;2023-02-11T01:27:31;2.10;99.90
10249;DHT22;5169;50.560;9.714;2023-02-11T01:30:01;2.20;99.90
10249;DHT22;5169;50.560;9.714;2023-02-11T01:32:26;2.20;99.90
10249;DHT22;5169;50.560;9.714;2023-02-11T01:34:52;2.20;99.90
10249;DHT22;5169;50.560;9.714;2023-02-11T01:37:20;2.20;99.90
10249;DHT22;5169;50.560;9.714;2023-02-11T01:39:48;2.10;99.90
10249;DHT22;5169;50.560;9.714;2023-02-11T01:42:23;2.00;99.90
10249;DHT22;5169;50.560;9.714;2023-02-11T01:44:51;2.10;99.90
10249;DHT22;5169;50.560;9.714;2023-02-11T01:47:17;2.20;99.90
10249;DHT22;5169;50.560;9.714;2023-02-11T01:49:54;2.20;99.90
10249;DHT22;5169;50.560;9.714;2023-02-11T01:52:36;2.20;99.90
10249;DHT22;5169;50.560;9.714;2023-02-11T01:55:09;2.20;99.90
10249;DHT22;5169;50.560;9.714;2023-02-11T01:57:59;2.10;99.90
10249;DHT22;5169;50.560;9.714;2023-02-11T02:00:36;2.10;99.90
10249;DHT22;5169;50.560;9.714;2023-02-11T02:03:19;2.00;99.90
10249;DHT22;5169;50.560;9.714;2023-02-11T02:11:10;2.10;99.90
10249;DHT22;5169;50.560;9.714;2023-02-11T02:13:36;2.10;99.90
10249;DHT22;5169;50.560;9.714;2023-02-11T02:16:17;2.20;99.90
10249;DHT22;5169;50.560;9.714;2023-02-11T02:30:15;2.30;99.90
10249;DHT22;5169;50.560;9.714;2023-02-11T02:35:41;2.30;99.90
10249;DHT22;5169;50.560;9.714;2023-02-11T02:38:17;2.30;99.90
10249;DHT22;5169;50.560;9.714;2023-02-11T02:43:28;2.30;99.90
10249;DHT22;5169;50.560;9.714;2023-02-11T02:45:55;2.30;99.90
10249;DHT22;5169;50.560;9.714;2023-02-11T02:48:33;2.30;99.90
10249;DHT22;5169;50.560;9.714;2023-02-11T02:54:03;2.40;99.90
10249;DHT22;5169;50.560;9.714;2023-02-11T02:56:39;2.30;99.90
10249;DHT22;5169;50.560;9.714;2023-02-11T03:04:56;2.20;99.90
10249;DHT22;5169;50.560;9.714;2023-02-11T03:12:45;2.10;99.90
10249;DHT22;5169;50.560;9.714;2023-02-11T03:15:15;2.00;99.90
10249;DHT22;5169;50.560;9.714;2023-02-11T03:17:45;2.00;99.90
10249;DHT22;5169;50.560;9.714;2023-02-11T03:20:15;2.00;99.90
10249;DHT22;5169;50.560;9.714;2023-02-11T03:23:12;2.00;99.90
10249;DHT22;5169;50.560;9.714;2023-02-11T03:25:48;2.00;99.90
10249;DHT22;5169;50.560;9.714;2023-02-11T03:31:08;1.90;99.90
10249;DHT22;5169;50.560;9.714;2023-02-11T03:34:05;1.90;99.90
10249;DHT22;5169;50.560;9.714;2023-02-11T03:37:22;1.90;99.90
10249;DHT22;5169;50.560;9.714;2023-02-11T03:40:20;1.90;99.90
10249;DHT22;5169;50.560;9.714;2023-02-11T03:42:45;2.00;99.90
10249;DHT22;5169;50.560;9.714;2023-02-11T03:45:16;2.00;99.90
10249;DHT22;5169;50.560;9.714;2023-02-11T03:47:46;2.00;99.90
10249;DHT22;5169;50.560;9.714;2023-02-11T03:50:17;2.10;99.90
10249;DHT22;5169;50.560;9.714;2023-02-11T03:52:46;2.10;99.90
10249;DHT22;5169;50.560;9.714;2023-02-11T03:55:16;2.10;99.90
10249;DHT22;5169;50.560;9.714;2023-02-11T03:57:45;2.10;99.90
10249;DHT22;5169;50.560;9.714;2023-02-11T04:00:12;2.20;99.90
10249;DHT22;5169;50.560;9.714;2023-02-11T04:02:38;2.30;99.90
10249;DHT22;5169;50.560;9.714;2023-02-11T04:05:08;2.30;99.90
10249;DHT22;5169;50.560;9.714;2023-02-11T04:07:35;2.30;99.90
10249;DHT22;5169;50.560;9.714;2023-02-11T04:10:00;2.30;99.90
10249;DHT22;5169;50.560;9.714;2023-02-11T04:12:26;2.20;99.90
10249;DHT22;5169;50.560;9.714;2023-02-11T04:14:54;2.30;99.90
10249;DHT22;5169;50.560;9.714;2023-02-11T04:17:20;2.20;99.90
10249;DHT22;5169;50.560;9.714;2023-02-11T04:19:48;2.30;99.90
10249;DHT22;5169;50.560;9.714;2023-02-11T04:22:13;2.30;99.90
10249;DHT22;5169;50.560;9.714;2023-02-11T04:24:41;2.30;99.90
10249;DHT22;5169;50.560;9.714;2023-02-11T04:27:08;2.30;99.90
10249;DHT22;5169;50.560;9.714;2023-02-11T04:29:34;2.20;99.90
10249;DHT22;5169;50.560;9.714;2023-02-11T04:32:00;2.20;99.90
10249;DHT22;5169;50.560;9.714;2023-02-11T04:34:26;2.20;99.90
10249;DHT22;5169;50.560;9.714;2023-02-11T04:36:51;2.20;99.90
10249;DHT22;5169;50.560;9.714;2023-02-11T04:39:20;2.20;99.90
10249;DHT22;5169;50.560;9.714;2023-02-11T04:41:46;2.20;99.90
10249;DHT22;5169;50.560;9.714;2023-02-11T04:44:14;2.30;99.90
10249;DHT22;5169;50.560;9.714;2023-02-11T04:46:40;2.30;99.90
10249;DHT22;5169;50.560;9.714;2023-02-11T04:49:05;2.20;99.90
10249;DHT22;5169;50.560;9.714;2023-02-11T04:51:31;2.20;99.90
10249;DHT22;5169;50.560;9.714;2023-02-11T04:53:59;2.20;99.90
10249;DHT22;5169;50.560;9.714;2023-02-11T04:56:27;2.20;99.90
10249;DHT22;5169;50.560;9.714;2023-02-11T04:58:53;2.20;99.90
10249;DHT22;5169;50.560;9.714;2023-02-11T05:01:23;2.20;99.90
10249;DHT22;5169;50.560;9.714;2023-02-11T05:03:49;2.30;99.90
10249;DHT22;5169;50.560;9.714;2023-02-11T05:06:16;2.30;99.90
10249;DHT22;5169;50.560;9.714;2023-02-11T05:08:41;2.30;99.90
10249;DHT22;5169;50.560;9.714;2023-02-11T05:11:15;2.20;99.90
10249;DHT22;5169;50.560;9.714;2023-02-11T05:13:42;2.20;99.90
10249;DHT22;5169;50.560;9.714;2023-02-11T05:16:10;2.20;99.90
10249;DHT22;5169;50.560;9.714;2023-02-11T05:18:37;2.10;99.90
10249;DHT22;5169;50.560;9.714;2023-02-11T05:21:09;2.20;99.90
10249;DHT22;5169;50.560;9.714;2023-02-11T05:23:36;2.20;99.90
10249;DHT22;5169;50.560;9.714;2023-02-11T05:26:03;2.20;99.90
10249;DHT22;5169;50.560;9.714;2023-02-11T05:28:30;2.20;99.90
10249;DHT22;5169;50.560;9.714;2023-02-11T05:30:56;2.20;99.90
10249;DHT22;5169;50.560;9.714;2023-02-11T05:33:21;2.20;99.90
10249;DHT22;5169;50.560;9.714;2023-02-11T05:35:47;2.20;99.90
10249;DHT22;5169;50.560;9.714;2023-02-11T05:38:13;2.10;99.90
10249;DHT22;5169;50.560;9.714;2023-02-11T05:40:39;2.20;99.90
10249;DHT22;5169;50.560;9.714;2023-02-11T05:43:05;2.30;99.90
10249;DHT22;5169;50.560;9.714;2023-02-11T05:45:31;2.40;99.90
10249;DHT22;5169;50.560;9.714;2023-02-11T05:47:57;2.30;99.90
10249;DHT22;5169;50.560;9.714;2023-02-11T05:50:23;2.20;99.90
10249;DHT22;5169;50.560;9.714;2023-02-11T05:52:48;2.20;99.90
10249;DHT22;5169;50.560;9.714;2023-02-11T05:55:16;2.20;99.90
10249;DHT22;5169;50.560;9.714;2023-02-11T05:57:42;2.20;99.90
10249;DHT22;5169;50.560;9.714;2023-02-11T06:00:13;2.30;99.90
10249;DHT22;5169;50.560;9.714;2023-02-11T06:02:39;2.30;99.90
10249;DHT22;5169;50.560;9.714;2023-02-11T06:05:05;2.30;99.90
10249;DHT22;5169;50.560;9.714;2023-02-11T06:07:31;2.30;99.90
10249;DHT22;5169;50.560;9.714;2023-02-11T06:09:56;2.30;99.90
10249;DHT22;5169;50.560;9.714;2023-02-11T06:12:23;2.30;99.90
10249;DHT22;5169;50.560;9.714;2023-02-11T06:14:49;2.30;99.90
10249;DHT22;5169;50.560;9.714;2023-02-11T06:17:14;2.30;99.90
10249;DHT22;5169;50.560;9.714;2023-02-11T06:19:42;2.30;99.90
10249;DHT22;5169;50.560;9.714;2023-02-11T06:22:08;2.30;99.90
10249;DHT22;5169;50.560;9.714;2023-02-11T06:24:34;2.30;99.90
10249;DHT22;5169;50.560;9.714;2023-02-11T06:26:59;2.40;99.90
10249;DHT22;5169;50.560;9.714;2023-02-11T06:29:25;2.40;99.90
10249;DHT22;5169;50.560;9.714;2023-02-11T06:31:51;2.40;99.90
10249;DHT22;5169;50.560;9.714;2023-02-11T06:34:16;2.40;99.90
10249;DHT22;5169;50.560;9.714;2023-02-11T06:36:42;2.40;99.90
10249;DHT22;5169;50.560;9.714;2023-02-11T06:39:10;2.40;99.90
10249;DHT22;5169;50.560;9.714;2023-02-11T06:41:36;2.40;99.90
10249;DHT22;5169;50.560;9.714;2023-02-11T06:44:02;2.40;99.90
10249;DHT22;5169;50.560;9.714;2023-02-11T06:46:30;2.40;99.90
10249;DHT22;5169;50.560;9.714;2023-02-11T06:48:56;2.40;99.90
10249;DHT22;5169;50.560;9.714;2023-02-11T06:51:22;2.40;99.90
10249;DHT22;5169;50.560;9.714;2023-02-11T06:53:48;2.40;99.90
10249;DHT22;5169;50.560;9.714;2023-02-11T06:56:21;2.30;99.90
10249;DHT22;5169;50.560;9.714;2023-02-11T06:58:50;2.30;99.90
10249;DHT22;5169;50.560;9.714;2023-02-11T07:01:19;2.30;99.90
10249;DHT22;5169;50.560;9.714;2023-02-11T07:03:44;2.30;99.90
10249;DHT22;5169;50.560;9.714;2023-02-11T07:06:19;2.40;99.90
10249;DHT22;5169;50.560;9.714;2023-02-11T07:08:49;2.40;99.90
10249;DHT22;5169;50.560;9.714;2023-02-11T07:11:17;2.40;99.90
10249;DHT22;5169;50.560;9.714;2023-02-11T07:13:43;2.30;99.90
10249;DHT22;5169;50.560;9.714;2023-02-11T07:16:12;2.30;99.90
10249;DHT22;5169;50.560;9.714;2023-02-11T07:18:39;2.20;99.90
10249;DHT22;5169;50.560;9.714;2023-02-11T07:21:05;2.30;99.90
10249;DHT22;5169;50.560;9.714;2023-02-11T07:23:32;2.40;99.90
10249;DHT22;5169;50.560;9.714;2023-02-11T07:26:08;2.40;99.90
10249;DHT22;5169;50.560;9.714;2023-02-11T07:28:35;2.50;99.90
10249;DHT22;5169;50.560;9.714;2023-02-11T07:31:13;2.50;99.90
10249;DHT22;5169;50.560;9.714;2023-02-11T07:33:40;2.50;99.90
10249;DHT22;5169;50.560;9.714;2023-02-11T07:36:07;2.50;99.90
10249;DHT22;5169;50.560;9.714;2023-02-11T07:38:41;2.50;99.90
10249;DHT22;5169;50.560;9.714;2023-02-11T07:41:13;2.50;99.90
10249;DHT22;5169;50.560;9.714;2023-02-11T07:43:41;2.70;99.90
10249;DHT22;5169;50.560;9.714;2023-02-11T07:46:16;2.70;99.90
10249;DHT22;5169;50.560;9.714;2023-02-11T07:48:45;2.70;99.90
10249;DHT22;5169;50.560;9.714;2023-02-11T07:51:13;2.70;99.90
10249;DHT22;5169;50.560;9.714;2023-02-11T07:53:39;2.80;99.90
10249;DHT22;5169;50.560;9.714;2023-02-11T07:56:07;2.70;99.90
10249;DHT22;5169;50.560;9.714;2023-02-11T07:58:36;2.70;99.90
10249;DHT22;5169;50.560;9.714;2023-02-11T08:01:07;2.70;99.90
10249;DHT22;5169;50.560;9.714;2023-02-11T08:03:38;2.70;99.90
10249;DHT22;5169;50.560;9.714;2023-02-11T08:06:11;2.70;99.90
10249;DHT22;5169;50.560;9.714;2023-02-11T08:08:37;2.70;99.90
10249;DHT22;5169;50.560;9.714;2023-02-11T08:13:37;2.80;99.90
10249;DHT22;5169;50.560;9.714;2023-02-11T08:16:06;2.90;99.90
10249;DHT22;5169;50.560;9.714;2023-02-11T08:18:33;2.90;99.90
10249;DHT22;5169;50.560;9.714;2023-02-11T08:21:06;2.90;99.90
10249;DHT22;5169;50.560;9.714;2023-02-11T08:23:32;3.00;99.90
10249;DHT22;5169;50.560;9.714;2023-02-11T08:26:02;3.10;99.90
10249;DHT22;5169;50.560;9.714;2023-02-11T08:28:27;3.10;99.90
10249;DHT22;5169;50.560;9.714;2023-02-11T08:31:00;3.00;99.90
10249;DHT22;5169;50.560;9.714;2023-02-11T08:33:28;2.90;99.90
10249;DHT22;5169;50.560;9.714;2023-02-11T08:35:54;2.80;99.90
10249;DHT22;5169;50.560;9.714;2023-02-11T08:38:20;2.90;99.90
10249;DHT22;5169;50.560;9.714;2023-02-11T08:40:46;3.00;99.90
10249;DHT22;5169;50.560;9.714;2023-02-11T08:43:11;3.00;99.90
10249;DHT22;5169;50.560;9.714;2023-02-11T08:45:37;3.00;99.90
10249;DHT22;5169;50.560;9.714;2023-02-11T08:48:03;3.00;99.90
10249;DHT22;5169;50.560;9.714;2023-02-11T08:50:31;2.90;99.90
10249;DHT22;5169;50.560;9.714;2023-02-11T08:53:03;2.80;99.90
10249;DHT22;5169;50.560;9.714;2023-02-11T08:55:29;2.90;99.90
10249;DHT22;5169;50.560;9.714;2023-02-11T08:57:56;2.80;99.90
10249;DHT22;5169;50.560;9.714;2023-02-11T09:00:22;2.80;99.90
10249;DHT22;5169;50.560;9.714;2023-02-11T09:02:48;2.90;99.90
10249;DHT22;5169;50.560;9.714;2023-02-11T09:05:14;2.90;99.90
10249;DHT22;5169;50.560;9.714;2023-02-11T09:07:39;2.90;99.90
10249;DHT22;5169;50.560;9.714;2023-02-11T09:10:05;2.80;99.90
10249;DHT22;5169;50.560;9.714;2023-02-11T09:12:31;2.90;99.90
10249;DHT22;5169;50.560;9.714;2023-02-11T09:14:57;2.90;99.90
10249;DHT22;5169;50.560;9.714;2023-02-11T09:17:23;2.80;99.90
10249;DHT22;5169;50.560;9.714;2023-02-11T09:19:48;2.90;99.90
10249;DHT22;5169;50.560;9.714;2023-02-11T09:22:16;2.90;99.90
10249;DHT22;5169;50.560;9.714;2023-02-11T09:24:42;2.90;99.90
10249;DHT22;5169;50.560;9.714;2023-02-11T09:27:08;2.90;99.90
10249;DHT22;5169;50.560;9.714;2023-02-11T09:29:36;3.00;99.90
10249;DHT22;5169;50.560;9.714;2023-02-11T09:32:02;3.10;99.90
10249;DHT22;5169;50.560;9.714;2023-02-11T09:34:30;3.20;99.90
10249;DHT22;5169;50.560;9.714;2023-02-11T09:36:58;3.20;99.90
10249;DHT22;5169;50.560;9.714;2023-02-11T09:39:23;3.20;99.90
10249;DHT22;5169;50.560;9.714;2023-02-11T09:44:35;3.40;99.90
10249;DHT22;5169;50.560;9.714;2023-02-11T09:50:41;3.30;99.90
10249;DHT22;5169;50.560;9.714;2023-02-11T09:57:56;3.40;99.90
10249;DHT22;5169;50.560;9.714;2023-02-11T10:05:55;3.30;99.90
10249;DHT22;5169;50.560;9.714;2023-02-11T10:21:07;3.60;99.90
10249;DHT22;5169;50.560;9.714;2023-02-11T10:23:41;3.60;99.90
10249;DHT22;5169;50.560;9.714;2023-02-11T10:26:16;3.80;99.90
10249;DHT22;5169;50.560;9.714;2023-02-11T10:28:46;3.90;99.90
10249;DHT22;5169;50.560;9.714;2023-02-11T10:34:10;4.10;99.90
10249;DHT22;5169;50.560;9.714;2023-02-11T10:36:43;4.20;99.90
10249;DHT22;5169;50.560;9.714;2023-02-11T10:41:55;4.20;99.90
10249;DHT22;5169;50.560;9.714;2023-02-11T10:46:54;4.20;99.90
10249;DHT22;5169;50.560;9.714;2023-02-11T10:49:55;4.30;99.90
10249;DHT22;5169;50.560;9.714;2023-02-11T10:52:28;4.40;99.90
10249;DHT22;5169;50.560;9.714;2023-02-11T10:55:26;4.30;99.90
10249;DHT22;5169;50.560;9.714;2023-02-11T10:58:00;4.50;99.90
10249;DHT22;5169;50.560;9.714;2023-02-11T11:00:39;4.60;99.90
10249;DHT22;5169;50.560;9.714;2023-02-11T11:03:20;4.60;99.90
10249;DHT22;5169;50.560;9.714;2023-02-11T11:06:08;4.60;99.90
10249;DHT22;5169;50.560;9.714;2023-02-11T11:11:20;4.80;99.90
10249;DHT22;5169;50.560;9.714;2023-02-11T11:19:18;4.70;99.90
10249;DHT22;5169;50.560;9.714;2023-02-11T11:21:50;4.60;99.90
10249;DHT22;5169;50.560;9.714;2023-02-11T11:26:55;4.60;99.90
10249;DHT22;5169;50.560;9.714;2023-02-11T11:29:47;4.60;99.90
10249;DHT22;5169;50.560;9.714;2023-02-11T11:32:22;4.50;99.90
10249;DHT22;5169;50.560;9.714;2023-02-11T11:35:04;4.50;99.90
10249;DHT22;5169;50.560;9.714;2023-02-11T11:37:35;4.50;99.90
10249;DHT22;5169;50.560;9.714;2023-02-11T11:40:02;4.50;99.90
10249;DHT22;5169;50.560;9.714;2023-02-11T11:42:36;4.50;99.90
10249;DHT22;5169;50.560;9.714;2023-02-11T11:45:24;4.50;99.90
10249;DHT22;5169;50.560;9.714;2023-02-11T11:48:11;4.50;99.90
10249;DHT22;5169;50.560;9.714;2023-02-11T11:51:05;4.50;99.90
10249;DHT22;5169;50.560;9.714;2023-02-11T11:53:44;4.70;99.90
10249;DHT22;5169;50.560;9.714;2023-02-11T11:56:26;4.70;99.90
10249;DHT22;5169;50.560;9.714;2023-02-11T11:58:53;4.80;99.90
10249;DHT22;5169;50.560;9.714;2023-02-11T12:10:52;5.20;99.90
10249;DHT22;5169;50.560;9.714;2023-02-11T12:13:44;5.30;99.90
10249;DHT22;5169;50.560;9.714;2023-02-11T12:16:31;5.50;99.90
10249;DHT22;5169;50.560;9.714;2023-02-11T12:19:40;5.60;99.90
10249;DHT22;5169;50.560;9.714;2023-02-11T12:25:27;5.50;99.90
10249;DHT22;5169;50.560;9.714;2023-02-11T12:33:54;5.30;99.90
10249;DHT22;5169;50.560;9.714;2023-02-11T12:36:59;5.30;99.90
10249;DHT22;5169;50.560;9.714;2023-02-11T12:39:50;5.30;99.90
10249;DHT22;5169;50.560;9.714;2023-02-11T12:45:30;5.40;99.90
10249;DHT22;5169;50.560;9.714;2023-02-11T12:56:08;5.70;99.90
10249;DHT22;5169;50.560;9.714;2023-02-11T12:58:36;5.70;99.90
10249;DHT22;5169;50.560;9.714;2023-02-11T13:01:08;5.60;99.90
10249;DHT22;5169;50.560;9.714;2023-02-11T13:03:39;5.50;99.90
10249;DHT22;5169;50.560;9.714;2023-02-11T13:06:31;5.50;99.90
10249;DHT22;5169;50.560;9.714;2023-02-11T13:09:02;5.30;99.90
10249;DHT22;5169;50.560;9.714;2023-02-11T13:11:34;5.30;99.90
10249;DHT22;5169;50.560;9.714;2023-02-11T13:16:45;5.30;99.90
10249;DHT22;5169;50.560;9.714;2023-02-11T13:19:15;5.30;99.90
10249;DHT22;5169;50.560;9.714;2023-02-11T13:21:47;5.20;99.90
10249;DHT22;5169;50.560;9.714;2023-02-11T13:24:17;5.10;99.90
10249;DHT22;5169;50.560;9.714;2023-02-11T13:27:00;5.00;99.90
10249;DHT22;5169;50.560;9.714;2023-02-11T13:32:09;4.90;99.90
10249;DHT22;5169;50.560;9.714;2023-02-11T13:37:27;4.80;99.90
10249;DHT22;5169;50.560;9.714;2023-02-11T13:42:21;4.70;99.90
10249;DHT22;5169;50.560;9.714;2023-02-11T13:44:50;4.70;99.90
10249;DHT22;5169;50.560;9.714;2023-02-11T13:47:31;4.70;99.90
10249;DHT22;5169;50.560;9.714;2023-02-11T13:49:59;4.80;99.90
10249;DHT22;5169;50.560;9.714;2023-02-11T13:52:33;4.70;99.90
10249;DHT22;5169;50.560;9.714;2023-02-11T13:55:29;4.70;99.90
10249;DHT22;5169;50.560;9.714;2023-02-11T14:14:31;4.90;99.90
10249;DHT22;5169;50.560;9.714;2023-02-11T14:19:37;5.00;99.90
10249;DHT22;5169;50.560;9.714;2023-02-11T14:27:22;4.90;99.90
10249;DHT22;5169;50.560;9.714;2023-02-11T14:32:54;5.00;99.90
10249;DHT22;5169;50.560;9.714;2023-02-11T14:41:22;5.00;99.90
10249;DHT22;5169;50.560;9.714;2023-02-11T14:44:26;5.00;99.90
10249;DHT22;5169;50.560;9.714;2023-02-11T14:46:47;5.00;99.90
10249;DHT22;5169;50.560;9.714;2023-02-11T14:51:52;5.10;99.90
10249;DHT22;5169;50.560;9.714;2023-02-11T14:54:21;5.10;99.90
10249;DHT22;5169;50.560;9.714;2023-02-11T14:59:34;5.00;99.90
10249;DHT22;5169;50.560;9.714;2023-02-11T15:02:00;5.00;99.90
10249;DHT22;5169;50.560;9.714;2023-02-11T15:04:29;5.00;99.90
10249;DHT22;5169;50.560;9.714;2023-02-11T15:06:56;5.00;99.90
10249;DHT22;5169;50.560;9.714;2023-02-11T15:09:47;5.10;99.90
10249;DHT22;5169;50.560;9.714;2023-02-11T15:12:21;5.10;99.90
10249;DHT22;5169;50.560;9.714;2023-02-11T15:14:50;5.00;99.90
10249;DHT22;5169;50.560;9.714;2023-02-11T15:17:21;4.90;99.90
10249;DHT22;5169;50.560;9.714;2023-02-11T15:19:52;4.80;99.90
10249;DHT22;5169;50.560;9.714;2023-02-11T15:22:25;4.80;99.90
10249;DHT22;5169;50.560;9.714;2023-02-11T15:27:50;4.80;99.90
10249;DHT22;5169;50.560;9.714;2023-02-11T15:30:23;4.70;99.90
10249;DHT22;5169;50.560;9.714;2023-02-11T15:32:58;4.70;99.90
10249;DHT22;5169;50.560;9.714;2023-02-11T15:35:37;4.80;99.90
10249;DHT22;5169;50.560;9.714;2023-02-11T15:38:08;4.70;99.90
10249;DHT22;5169;50.560;9.714;2023-02-11T15:40:36;4.80;99.90
10249;DHT22;5169;50.560;9.714;2023-02-11T15:43:07;4.80;99.90
10249;DHT22;5169;50.560;9.714;2023-02-11T15:48:18;4.80;99.90
10249;DHT22;5169;50.560;9.714;2023-02-11T15:50:54;4.80;99.90
10249;DHT22;5169;50.560;9.714;2023-02-11T15:53:37;4.70;99.90
10249;DHT22;5169;50.560;9.714;2023-02-11T15:56:48;4.60;99.90
10249;DHT22;5169;50.560;9.714;2023-02-11T15:59:27;4.70;99.90
10249;DHT22;5169;50.560;9.714;2023-02-11T16:01:56;4.70;99.90
10249;DHT22;5169;50.560;9.714;2023-02-11T16:04:26;4.70;99.90
10249;DHT22;5169;50.560;9.714;2023-02-11T16:06:58;4.70;99.90
10249;DHT22;5169;50.560;9.714;2023-02-11T16:09:33;4.60;99.90
10249;DHT22;5169;50.560;9.714;2023-02-11T16:12:16;4.70;99.90
10249;DHT22;5169;50.560;9.714;2023-02-11T16:14:45;4.70;99.90
10249;DHT22;5169;50.560;9.714;2023-02-11T16:19:46;4.80;99.90
10249;DHT22;5169;50.560;9.714;2023-02-11T16:22:23;4.80;99.90
10249;DHT22;5169;50.560;9.714;2023-02-11T16:24:53;4.80;99.90
10249;DHT22;5169;50.560;9.714;2023-02-11T16:27:27;4.80;99.90
10249;DHT22;5169;50.560;9.714;2023-02-11T16:29:56;4.90;99.90
10249;DHT22;5169;50.560;9.714;2023-02-11T16:32:26;4.80;99.90
10249;DHT22;5169;50.560;9.714;2023-02-11T16:34:53;4.90;99.90
10249;DHT22;5169;50.560;9.714;2023-02-11T16:37:19;5.00;99.90
10249;DHT22;5169;50.560;9.714;2023-02-11T16:39:45;5.00;99.90
10249;DHT22;5169;50.560;9.714;2023-02-11T16:42:11;5.00;99.90
10249;DHT22;5169;50.560;9.714;2023-02-11T16:44:38;5.00;99.90
10249;DHT22;5169;50.560;9.714;2023-02-11T16:47:06;4.90;99.90
10249;DHT22;5169;50.560;9.714;2023-02-11T16:49:37;4.90;99.90
10249;DHT22;5169;50.560;9.714;2023-02-11T16:52:07;4.90;99.90
10249;DHT22;5169;50.560;9.714;2023-02-11T16:54:33;4.80;99.90
10249;DHT22;5169;50.560;9.714;2023-02-11T16:57:19;4.80;99.90
10249;DHT22;5169;50.560;9.714;2023-02-11T17:03:07;4.90;99.90
10249;DHT22;5169;50.560;9.714;2023-02-11T17:05:35;4.90;99.90
10249;DHT22;5169;50.560;9.714;2023-02-11T17:08:01;4.90;99.90
10249;DHT22;5169;50.560;9.714;2023-02-11T17:10:30;4.90;99.90
10249;DHT22;5169;50.560;9.714;2023-02-11T17:12:58;4.90;99.90
10249;DHT22;5169;50.560;9.714;2023-02-11T17:15:24;4.80;99.90
10249;DHT22;5169;50.560;9.714;2023-02-11T17:17:49;4.90;99.90
10249;DHT22;5169;50.560;9.714;2023-02-11T17:20:17;4.90;99.90
10249;DHT22;5169;50.560;9.714;2023-02-11T17:22:45;4.80;99.90
10249;DHT22;5169;50.560;9.714;2023-02-11T17:25:13;4.80;99.90
10249;DHT22;5169;50.560;9.714;2023-02-11T17:27:39;4.90;99.90
10249;DHT22;5169;50.560;9.714;2023-02-11T17:30:05;4.80;99.90
10249;DHT22;5169;50.560;9.714;2023-02-11T17:32:31;4.80;99.90
10249;DHT22;5169;50.560;9.714;2023-02-11T17:34:59;4.80;99.90
10249;DHT22;5169;50.560;9.714;2023-02-11T17:37:25;4.70;99.90
10249;DHT22;5169;50.560;9.714;2023-02-11T17:39:53;4.60;99.90
10249;DHT22;5169;50.560;9.714;2023-02-11T17:42:19;4.60;99.90
10249;DHT22;5169;50.560;9.714;2023-02-11T17:44:45;4.60;99.90
10249;DHT22;5169;50.560;9.714;2023-02-11T17:47:11;4.60;99.90
10249;DHT22;5169;50.560;9.714;2023-02-11T17:49:38;4.50;99.90
10249;DHT22;5169;50.560;9.714;2023-02-11T17:52:03;4.60;99.90
10249;DHT22;5169;50.560;9.714;2023-02-11T17:54:29;4.60;99.90
10249;DHT22;5169;50.560;9.714;2023-02-11T17:56:57;4.50;99.90
10249;DHT22;5169;50.560;9.714;2023-02-11T17:59:23;4.60;99.90
10249;DHT22;5169;50.560;9.714;2023-02-11T18:01:50;4.70;99.90
10249;DHT22;5169;50.560;9.714;2023-02-11T18:04:17;4.70;99.90
10249;DHT22;5169;50.560;9.714;2023-02-11T18:06:46;4.80;99.90
10249;DHT22;5169;50.560;9.714;2023-02-11T18:09:11;4.80;99.90
10249;DHT22;5169;50.560;9.714;2023-02-11T18:11:38;4.80;99.90
10249;DHT22;5169;50.560;9.714;2023-02-11T18:14:05;4.90;99.90
10249;DHT22;5169;50.560;9.714;2023-02-11T18:16:33;4.90;99.90
10249;DHT22;5169;50.560;9.714;2023-02-11T18:19:03;4.80;99.90
10249;DHT22;5169;50.560;9.714;2023-02-11T18:21:35;4.80;99.90
10249;DHT22;5169;50.560;9.714;2023-02-11T18:24:02;4.80;99.90
10249;DHT22;5169;50.560;9.714;2023-02-11T18:26:28;4.80;99.90
10249;DHT22;5169;50.560;9.714;2023-02-11T18:28:56;4.80;99.90
10249;DHT22;5169;50.560;9.714;2023-02-11T18:31:25;4.80;99.90
10249;DHT22;5169;50.560;9.714;2023-02-11T18:33:51;4.80;99.90
10249;DHT22;5169;50.560;9.714;2023-02-11T18:36:20;4.90;99.90
10249;DHT22;5169;50.560;9.714;2023-02-11T18:38:46;4.90;99.90
10249;DHT22;5169;50.560;9.714;2023-02-11T18:41:12;4.90;99.90
10249;DHT22;5169;50.560;9.714;2023-02-11T18:43:40;4.90;99.90
10249;DHT22;5169;50.560;9.714;2023-02-11T18:46:09;4.90;99.90
10249;DHT22;5169;50.560;9.714;2023-02-11T18:48:36;4.90;99.90
10249;DHT22;5169;50.560;9.714;2023-02-11T18:51:07;4.90;99.90
10249;DHT22;5169;50.560;9.714;2023-02-11T18:53:34;5.00;99.90
10249;DHT22;5169;50.560;9.714;2023-02-11T18:55:59;5.00;99.90
10249;DHT22;5169;50.560;9.714;2023-02-11T18:58:30;5.00;99.90
10249;DHT22;5169;50.560;9.714;2023-02-11T19:00:58;5.00;99.90
10249;DHT22;5169;50.560;9.714;2023-02-11T19:03:26;5.00;99.90
10249;DHT22;5169;50.560;9.714;2023-02-11T19:05:51;5.00;99.90
10249;DHT22;5169;50.560;9.714;2023-02-11T19:08:18;5.00;99.90
10249;DHT22;5169;50.560;9.714;2023-02-11T19:10:48;5.00;99.90
10249;DHT22;5169;50.560;9.714;2023-02-11T19:13:14;5.00;99.90
10249;DHT22;5169;50.560;9.714;2023-02-11T19:15:45;5.00;99.90
10249;DHT22;5169;50.560;9.714;2023-02-11T19:18:14;5.00;99.90
10249;DHT22;5169;50.560;9.714;2023-02-11T19:20:43;5.00;99.90
10249;DHT22;5169;50.560;9.714;2023-02-11T19:23:09;5.10;99.90
10249;DHT22;5169;50.560;9.714;2023-02-11T19:25:44;5.10;99.90